ESOK 201950Z 02005KT CAVOK 06/04 Q1018